sensor_id;sensor_type;location;lat;lon;timestamp;pressure;altitude;pressure_sealevel;temperature;humidity
7157;BME280;3620;49.862;8.758;2023-02-28T00:01:13;100290.25;;;2.55;61.73
7157;BME280;3620;49.862;8.758;2023-02-28T00:03:40;100289.53;;;3.25;60.71
7157;BME280;3620;49.862;8.758;2023-02-28T00:06:08;100295.63;;;3.39;60.31
7157;BME280;3620;49.862;8.758;2023-02-28T00:08:35;100291.31;;;3.40;60.28
7157;BME280;3620;49.862;8.758;2023-02-28T00:11:04;100301.69;;;3.31;60.27
7157;BME280;3620;49.862;8.758;2023-02-28T00:13:32;100291.28;;;3.31;60.60
7157;BME280;3620;49.862;8.758;2023-02-28T00:16:01;100292.16;;;3.28;60.57
7157;BME280;3620;49.862;8.758;2023-02-28T00:18:28;100289.53;;;3.36;60.57
7157;BME280;3620;49.862;8.758;2023-02-28T00:20:54;100294.75;;;3.18;60.95
7157;BME280;3620;49.862;8.758;2023-02-28T00:23:21;100293.00;;;3.17;61.06
7157;BME280;3620;49.862;8.758;2023-02-28T00:25:47;100296.47;;;3.14;61.08
7157;BME280;3620;49.862;8.758;2023-02-28T00:28:15;100294.72;;;3.00;61.44
7157;BME280;3620;49.862;8.758;2023-02-28T00:30:42;100296.44;;;3.01;61.32
7157;BME280;3620;49.862;8.758;2023-02-28T00:33:09;100296.44;;;2.97;61.48
7157;BME280;3620;49.862;8.758;2023-02-28T00:35:35;100299.91;;;3.03;61.44
7157;BME280;3620;49.862;8.758;2023-02-28T00:38:02;100298.16;;;2.92;61.39
7157;BME280;3620;49.862;8.758;2023-02-28T00:40:28;100299.88;;;2.87;61.57
7157;BME280;3620;49.862;8.758;2023-02-28T00:42:55;100299.00;;;2.91;61.70
7157;BME280;3620;49.862;8.758;2023-02-28T00:45:23;100306.81;;;2.85;61.78
7157;BME280;3620;49.862;8.758;2023-02-28T00:47:50;100304.19;;;2.81;62.17
7157;BME280;3620;49.862;8.758;2023-02-28T00:50:16;100301.59;;;2.87;61.89
7157;BME280;3620;49.862;8.758;2023-02-28T00:52:43;100305.06;;;2.81;62.36
7157;BME280;3620;49.862;8.758;2023-02-28T00:55:10;100300.72;;;2.83;62.40
7157;BME280;3620;49.862;8.758;2023-02-28T00:57:36;100301.59;;;2.82;62.17
7157;BME280;3620;49.862;8.758;2023-02-28T01:00:04;100299.00;;;2.84;62.41
7157;BME280;3620;49.862;8.758;2023-02-28T01:02:33;100299.88;;;2.87;62.01
7157;BME280;3620;49.862;8.758;2023-02-28T01:04:59;100294.66;;;2.84;61.96
7157;BME280;3620;49.862;8.758;2023-02-28T01:07:26;100302.44;;;2.78;62.50
7157;BME280;3620;49.862;8.758;2023-02-28T01:09:52;100296.38;;;2.82;62.34
7157;BME280;3620;49.862;8.758;2023-02-28T01:12:19;100300.75;;;2.82;62.56
7157;BME280;3620;49.862;8.758;2023-02-28T01:14:45;100299.91;;;2.90;62.50
7157;BME280;3620;49.862;8.758;2023-02-28T01:17:12;100296.41;;;2.79;62.51
7157;BME280;3620;49.862;8.758;2023-02-28T01:19:40;100294.66;;;2.78;62.53
7157;BME280;3620;49.862;8.758;2023-02-28T01:22:06;100291.19;;;2.82;62.39
7157;BME280;3620;49.862;8.758;2023-02-28T01:24:33;100290.38;;;2.91;62.11
7157;BME280;3620;49.862;8.758;2023-02-28T01:26:59;100298.19;;;3.17;61.55
7157;BME280;3620;49.862;8.758;2023-02-28T01:29:26;100289.53;;;3.09;61.56
7157;BME280;3620;49.862;8.758;2023-02-28T01:31:52;100277.38;;;3.03;61.78
7157;BME280;3620;49.862;8.758;2023-02-28T01:34:19;100287.78;;;3.05;61.79
7157;BME280;3620;49.862;8.758;2023-02-28T01:36:47;100287.78;;;3.05;61.72
7157;BME280;3620;49.862;8.758;2023-02-28T01:39:13;100286.94;;;3.10;61.62
7157;BME280;3620;49.862;8.758;2023-02-28T01:41:40;100286.06;;;3.16;61.75
7157;BME280;3620;49.862;8.758;2023-02-28T01:44:53;100285.22;;;3.11;61.64
7157;BME280;3620;49.862;8.758;2023-02-28T01:46:55;100281.72;;;3.06;61.35
7157;BME280;3620;49.862;8.758;2023-02-28T01:49:21;100280.84;;;3.10;61.53
7157;BME280;3620;49.862;8.758;2023-02-28T01:51:50;100279.97;;;3.00;61.52
7157;BME280;3620;49.862;8.758;2023-02-28T01:54:23;100277.38;;;2.98;61.61
7157;BME280;3620;49.862;8.758;2023-02-28T01:56:53;100272.19;;;3.05;61.46
7157;BME280;3620;49.862;8.758;2023-02-28T01:59:24;100273.91;;;2.93;61.40
7157;BME280;3620;49.862;8.758;2023-02-28T02:01:55;100273.91;;;2.92;62.23
7157;BME280;3620;49.862;8.758;2023-02-28T02:04:23;100274.78;;;3.02;62.10
7157;BME280;3620;49.862;8.758;2023-02-28T02:06:53;100259.19;;;2.97;61.96
7157;BME280;3620;49.862;8.758;2023-02-28T02:09:20;100260.88;;;2.84;62.12
7157;BME280;3620;49.862;8.758;2023-02-28T02:11:48;100265.22;;;2.82;62.21
7157;BME280;3620;49.862;8.758;2023-02-28T02:14:29;100255.66;;;2.74;62.51
7157;BME280;3620;49.862;8.758;2023-02-28T02:17:09;100253.97;;;2.82;62.34
7157;BME280;3620;49.862;8.758;2023-02-28T02:20:15;100246.16;;;2.80;62.79
7157;BME280;3620;49.862;8.758;2023-02-28T02:23:07;100253.94;;;2.80;62.37
7157;BME280;3620;49.862;8.758;2023-02-28T02:25:44;100248.78;;;2.82;62.60
7157;BME280;3620;49.862;8.758;2023-02-28T02:31:24;100246.16;;;2.68;62.83
7157;BME280;3620;49.862;8.758;2023-02-28T02:34:28;100247.03;;;2.79;62.76
7157;BME280;3620;49.862;8.758;2023-02-28T02:37:05;100238.38;;;2.79;62.96
7157;BME280;3620;49.862;8.758;2023-02-28T02:39:42;100243.53;;;2.65;63.54
7157;BME280;3620;49.862;8.758;2023-02-28T02:42:15;100244.44;;;2.76;63.63
7157;BME280;3620;49.862;8.758;2023-02-28T02:44:48;100251.38;;;2.77;63.08
7157;BME280;3620;49.862;8.758;2023-02-28T02:47:17;100254.75;;;2.58;63.54
7157;BME280;3620;49.862;8.758;2023-02-28T02:49:49;100248.72;;;2.62;63.90
7157;BME280;3620;49.862;8.758;2023-02-28T02:52:22;100242.69;;;2.72;63.37
7157;BME280;3620;49.862;8.758;2023-02-28T02:54:52;100247.00;;;2.63;63.71
7157;BME280;3620;49.862;8.758;2023-02-28T02:57:23;100247.88;;;2.69;63.63
7157;BME280;3620;49.862;8.758;2023-02-28T02:59:54;100257.34;;;2.58;63.46
7157;BME280;3620;49.862;8.758;2023-02-28T03:02:22;100258.22;;;2.54;63.94
7157;BME280;3620;49.862;8.758;2023-02-28T03:04:56;100251.31;;;2.67;63.79
7157;BME280;3620;49.862;8.758;2023-02-28T03:07:26;100261.72;;;2.65;63.81
7157;BME280;3620;49.862;8.758;2023-02-28T03:09:53;100253.03;;;2.60;63.78
7157;BME280;3620;49.862;8.758;2023-02-28T03:12:23;100260.81;;;2.54;64.00
7157;BME280;3620;49.862;8.758;2023-02-28T03:14:56;100258.19;;;2.39;64.29
7157;BME280;3620;49.862;8.758;2023-02-28T03:17:38;100249.56;;;2.46;64.47
7157;BME280;3620;49.862;8.758;2023-02-28T03:20:17;100256.47;;;2.47;64.31
7157;BME280;3620;49.862;8.758;2023-02-28T03:22:52;100253.03;;;2.56;64.31
7157;BME280;3620;49.862;8.758;2023-02-28T03:25:29;100251.31;;;2.62;64.03
7157;BME280;3620;49.862;8.758;2023-02-28T03:28:02;100253.09;;;2.71;63.69
7157;BME280;3620;49.862;8.758;2023-02-28T03:30:38;100248.72;;;2.62;63.81
7157;BME280;3620;49.862;8.758;2023-02-28T03:33:08;100253.03;;;2.57;64.08
7157;BME280;3620;49.862;8.758;2023-02-28T03:35:41;100249.53;;;2.49;64.18
7157;BME280;3620;49.862;8.758;2023-02-28T03:38:13;100249.53;;;2.43;64.21
7157;BME280;3620;49.862;8.758;2023-02-28T03:40:43;100253.44;;;1.60;67.41
7157;BME280;3620;49.862;8.758;2023-02-28T03:43:16;100254.13;;;1.39;68.35
7157;BME280;3620;49.862;8.758;2023-02-28T03:45:45;100254.06;;;1.28;69.20
7157;BME280;3620;49.862;8.758;2023-02-28T03:48:16;100249.84;;;1.44;69.02
7157;BME280;3620;49.862;8.758;2023-02-28T03:50:49;100261.63;;;1.04;70.88
7157;BME280;3620;49.862;8.758;2023-02-28T03:53:21;100255.47;;;0.93;71.55
7157;BME280;3620;49.862;8.758;2023-02-28T03:55:51;100259.69;;;0.82;72.01
7157;BME280;3620;49.862;8.758;2023-02-28T03:58:24;100267.56;;;0.94;71.60
7157;BME280;3620;49.862;8.758;2023-02-28T04:00:57;100259.53;;;0.71;72.39
7157;BME280;3620;49.862;8.758;2023-02-28T04:03:25;100262.19;;;0.76;72.72
7157;BME280;3620;49.862;8.758;2023-02-28T04:05:54;100267.38;;;0.76;72.73
7157;BME280;3620;49.862;8.758;2023-02-28T04:08:22;100259.66;;;0.81;72.90
7157;BME280;3620;49.862;8.758;2023-02-28T04:10:55;100268.34;;;0.86;72.74
7157;BME280;3620;49.862;8.758;2023-02-28T04:13:23;100262.50;;;1.09;72.26
7157;BME280;3620;49.862;8.758;2023-02-28T04:15:50;100261.97;;;0.58;73.37
7157;BME280;3620;49.862;8.758;2023-02-28T04:18:16;100262.81;;;0.52;74.29
7157;BME280;3620;49.862;8.758;2023-02-28T04:20:43;100258.75;;;0.77;72.97
7157;BME280;3620;49.862;8.758;2023-02-28T04:23:11;100263.94;;;0.80;72.82
7157;BME280;3620;49.862;8.758;2023-02-28T04:25:37;100269.16;;;0.83;73.04
7157;BME280;3620;49.862;8.758;2023-02-28T04:28:05;100267.63;;;1.02;72.36
7157;BME280;3620;49.862;8.758;2023-02-28T04:30:32;100265.44;;;0.57;74.46
7157;BME280;3620;49.862;8.758;2023-02-28T04:33:00;100267.47;;;0.85;74.02
7157;BME280;3620;49.862;8.758;2023-02-28T04:35:27;100268.19;;;0.70;74.32
7157;BME280;3620;49.862;8.758;2023-02-28T04:37:53;100270.81;;;0.75;75.28
7157;BME280;3620;49.862;8.758;2023-02-28T04:40:21;100266.75;;;1.03;74.84
7157;BME280;3620;49.862;8.758;2023-02-28T04:42:48;100262.81;;;1.45;71.55
7157;BME280;3620;49.862;8.758;2023-02-28T04:45:14;100253.91;;;1.09;72.63
7157;BME280;3620;49.862;8.758;2023-02-28T04:47:42;100265.94;;;1.02;72.84
7157;BME280;3620;49.862;8.758;2023-02-28T04:50:09;100262.28;;;0.85;73.92
7157;BME280;3620;49.862;8.758;2023-02-28T04:52:36;100257.22;;;0.97;73.23
7157;BME280;3620;49.862;8.758;2023-02-28T04:55:03;100259.25;;;1.28;72.09
7157;BME280;3620;49.862;8.758;2023-02-28T04:57:32;100259.31;;;1.40;71.31
7157;BME280;3620;49.862;8.758;2023-02-28T04:59:58;100264.00;;;0.83;73.38
7157;BME280;3620;49.862;8.758;2023-02-28T05:02:25;100269.69;;;0.53;74.96
7157;BME280;3620;49.862;8.758;2023-02-28T05:04:51;100272.63;;;0.82;74.04
7157;BME280;3620;49.862;8.758;2023-02-28T05:07:18;100266.38;;;0.65;73.33
7157;BME280;3620;49.862;8.758;2023-02-28T05:09:44;100261.88;;;0.46;75.29
7157;BME280;3620;49.862;8.758;2023-02-28T05:12:11;100274.59;;;0.29;75.56
7157;BME280;3620;49.862;8.758;2023-02-28T05:14:39;100271.94;;;0.25;75.67
7157;BME280;3620;49.862;8.758;2023-02-28T05:17:06;100269.41;;;0.29;76.13
7157;BME280;3620;49.862;8.758;2023-02-28T05:19:32;100267.91;;;0.46;74.91
7157;BME280;3620;49.862;8.758;2023-02-28T05:21:59;100262.13;;;0.70;73.36
7157;BME280;3620;49.862;8.758;2023-02-28T05:24:25;100259.91;;;0.27;75.85
7157;BME280;3620;49.862;8.758;2023-02-28T05:26:53;100270.22;;;0.24;75.12
7157;BME280;3620;49.862;8.758;2023-02-28T05:29:20;100260.44;;;0.02;76.05
7157;BME280;3620;49.862;8.758;2023-02-28T05:31:48;100260.56;;;0.11;75.64
7157;BME280;3620;49.862;8.758;2023-02-28T05:34:15;100265.00;;;0.19;75.63
7157;BME280;3620;49.862;8.758;2023-02-28T05:36:41;100270.91;;;0.11;76.39
7157;BME280;3620;49.862;8.758;2023-02-28T05:39:08;100267.56;;;0.19;76.80
7157;BME280;3620;49.862;8.758;2023-02-28T05:41:39;100273.53;;;0.14;76.08
7157;BME280;3620;49.862;8.758;2023-02-28T05:44:05;100272.69;;;0.15;76.35
7157;BME280;3620;49.862;8.758;2023-02-28T05:46:32;100274.75;;;0.43;74.99
7157;BME280;3620;49.862;8.758;2023-02-28T05:49:00;100284.75;;;0.14;77.27
7157;BME280;3620;49.862;8.758;2023-02-28T05:51:26;100285.09;;;0.41;75.90
7157;BME280;3620;49.862;8.758;2023-02-28T05:53:53;100285.75;;;0.27;76.27
7157;BME280;3620;49.862;8.758;2023-02-28T05:56:20;100288.41;;;0.31;75.77
7157;BME280;3620;49.862;8.758;2023-02-28T05:58:47;100284.81;;;0.19;76.75
7157;BME280;3620;49.862;8.758;2023-02-28T06:01:23;100287.75;;;0.44;75.50
7157;BME280;3620;49.862;8.758;2023-02-28T06:03:50;100289.50;;;0.50;75.31
7157;BME280;3620;49.862;8.758;2023-02-28T06:06:18;100297.75;;;0.92;73.83
7157;BME280;3620;49.862;8.758;2023-02-28T06:08:44;100297.19;;;1.23;72.80
7157;BME280;3620;49.862;8.758;2023-02-28T06:11:11;100303.41;;;1.42;72.30
7157;BME280;3620;49.862;8.758;2023-02-28T06:13:38;100295.59;;;1.37;71.67
7157;BME280;3620;49.862;8.758;2023-02-28T06:16:05;100300.03;;;1.54;71.20
7157;BME280;3620;49.862;8.758;2023-02-28T06:18:32;100302.63;;;1.54;70.66
7157;BME280;3620;49.862;8.758;2023-02-28T06:20:59;100304.38;;;1.53;70.59
7157;BME280;3620;49.862;8.758;2023-02-28T06:23:26;100309.59;;;1.59;70.17
7157;BME280;3620;49.862;8.758;2023-02-28T06:25:53;100300.09;;;1.60;69.98
7157;BME280;3620;49.862;8.758;2023-02-28T06:28:23;100300.91;;;1.56;69.88
7157;BME280;3620;49.862;8.758;2023-02-28T06:30:50;100305.19;;;1.49;70.47
7157;BME280;3620;49.862;8.758;2023-02-28T06:33:16;100301.75;;;1.48;70.34
7157;BME280;3620;49.862;8.758;2023-02-28T06:35:43;100311.22;;;1.49;70.52
7157;BME280;3620;49.862;8.758;2023-02-28T06:38:10;100310.41;;;1.51;70.33
7157;BME280;3620;49.862;8.758;2023-02-28T06:40:38;100312.19;;;1.58;69.65
7157;BME280;3620;49.862;8.758;2023-02-28T06:43:04;100317.28;;;1.50;69.80
7157;BME280;3620;49.862;8.758;2023-02-28T06:45:31;100318.97;;;1.45;70.34
7157;BME280;3620;49.862;8.758;2023-02-28T06:47:58;100326.00;;;1.58;70.19
7157;BME280;3620;49.862;8.758;2023-02-28T06:50:25;100323.50;;;1.72;69.67
7157;BME280;3620;49.862;8.758;2023-02-28T06:52:54;100321.03;;;1.85;69.14
7157;BME280;3620;49.862;8.758;2023-02-28T06:55:21;100324.50;;;1.87;69.02
7157;BME280;3620;49.862;8.758;2023-02-28T06:57:49;100334.13;;;2.03;68.65
7157;BME280;3620;49.862;8.758;2023-02-28T07:00:16;100321.09;;;1.94;69.14
7157;BME280;3620;49.862;8.758;2023-02-28T07:02:43;100325.47;;;2.03;69.09
7157;BME280;3620;49.862;8.758;2023-02-28T07:05:09;100330.69;;;2.09;69.31
7157;BME280;3620;49.862;8.758;2023-02-28T07:07:36;100331.59;;;2.14;69.10
7157;BME280;3620;49.862;8.758;2023-02-28T07:10:06;100329.88;;;2.17;68.48
7157;BME280;3620;49.862;8.758;2023-02-28T07:12:32;100321.25;;;2.23;67.97
7157;BME280;3620;49.862;8.758;2023-02-28T07:15:00;100322.13;;;2.25;67.93
7157;BME280;3620;49.862;8.758;2023-02-28T07:17:27;100320.41;;;2.27;68.20
7157;BME280;3620;49.862;8.758;2023-02-28T07:19:53;100328.22;;;2.32;68.30
7157;BME280;3620;49.862;8.758;2023-02-28T07:22:20;100329.09;;;2.32;67.90
7157;BME280;3620;49.862;8.758;2023-02-28T07:24:46;100332.63;;;2.49;68.16
7157;BME280;3620;49.862;8.758;2023-02-28T07:27:13;100330.91;;;2.50;68.43
7157;BME280;3620;49.862;8.758;2023-02-28T07:29:51;100336.16;;;2.59;67.83
7157;BME280;3620;49.862;8.758;2023-02-28T07:32:19;100334.44;;;2.65;67.66
7157;BME280;3620;49.862;8.758;2023-02-28T07:34:45;100334.44;;;2.71;67.70
7157;BME280;3620;49.862;8.758;2023-02-28T07:37:12;100337.03;;;2.65;67.54
7157;BME280;3620;49.862;8.758;2023-02-28T07:39:38;100338.66;;;2.47;67.34
7157;BME280;3620;49.862;8.758;2023-02-28T07:42:07;100332.25;;;1.80;70.35
7157;BME280;3620;49.862;8.758;2023-02-28T07:44:35;100342.56;;;1.77;70.60
7157;BME280;3620;49.862;8.758;2023-02-28T07:47:05;100336.41;;;1.61;70.85
7157;BME280;3620;49.862;8.758;2023-02-28T07:49:34;100337.22;;;1.59;71.27
7157;BME280;3620;49.862;8.758;2023-02-28T07:52:00;100338.06;;;1.55;71.24
7157;BME280;3620;49.862;8.758;2023-02-28T07:54:27;100336.44;;;1.64;70.62
7157;BME280;3620;49.862;8.758;2023-02-28T07:56:53;100337.38;;;1.77;70.31
7157;BME280;3620;49.862;8.758;2023-02-28T07:59:21;100341.13;;;2.15;69.43
7157;BME280;3620;49.862;8.758;2023-02-28T08:01:47;100342.91;;;2.22;69.97
7157;BME280;3620;49.862;8.758;2023-02-28T08:04:15;100337.81;;;2.43;68.04
7157;BME280;3620;49.862;8.758;2023-02-28T08:06:43;100347.09;;;2.05;68.71
7157;BME280;3620;49.862;8.758;2023-02-28T08:09:10;100346.34;;;2.21;68.24
7157;BME280;3620;49.862;8.758;2023-02-28T08:11:37;100339.59;;;2.56;67.89
7157;BME280;3620;49.862;8.758;2023-02-28T08:14:03;100336.97;;;2.52;67.04
7157;BME280;3620;49.862;8.758;2023-02-28T08:16:30;100337.03;;;2.64;66.44
7157;BME280;3620;49.862;8.758;2023-02-28T08:18:56;100333.63;;;2.81;66.55
7157;BME280;3620;49.862;8.758;2023-02-28T08:21:23;100336.31;;;3.06;66.07
7157;BME280;3620;49.862;8.758;2023-02-28T08:23:51;100339.81;;;3.26;65.13
7157;BME280;3620;49.862;8.758;2023-02-28T08:26:17;100339.84;;;3.48;63.48
7157;BME280;3620;49.862;8.758;2023-02-28T08:28:44;100338.09;;;3.46;63.03
7157;BME280;3620;49.862;8.758;2023-02-28T08:31:13;100338.09;;;3.46;63.33
7157;BME280;3620;49.862;8.758;2023-02-28T08:33:40;100334.66;;;3.86;61.93
7157;BME280;3620;49.862;8.758;2023-02-28T08:36:07;100335.50;;;3.81;61.33
7157;BME280;3620;49.862;8.758;2023-02-28T08:38:35;100325.94;;;4.08;60.96
7157;BME280;3620;49.862;8.758;2023-02-28T08:41:05;100326.75;;;4.18;60.52
7157;BME280;3620;49.862;8.758;2023-02-28T08:43:32;100317.28;;;3.97;60.40
7157;BME280;3620;49.862;8.758;2023-02-28T08:45:59;100321.59;;;4.15;60.92
7157;BME280;3620;49.862;8.758;2023-02-28T08:48:27;100317.16;;;4.45;63.36
7157;BME280;3620;49.862;8.758;2023-02-28T08:50:55;100320.72;;;4.05;60.08
7157;BME280;3620;49.862;8.758;2023-02-28T08:53:22;100319.00;;;4.04;59.49
7157;BME280;3620;49.862;8.758;2023-02-28T08:55:55;100320.69;;;4.20;59.33
7157;BME280;3620;49.862;8.758;2023-02-28T08:58:23;100312.88;;;4.19;59.42
7157;BME280;3620;49.862;8.758;2023-02-28T09:00:50;100329.34;;;4.37;58.56
7157;BME280;3620;49.862;8.758;2023-02-28T09:03:16;100328.47;;;4.37;58.31
7157;BME280;3620;49.862;8.758;2023-02-28T09:05:52;100321.34;;;4.78;58.45
7157;BME280;3620;49.862;8.758;2023-02-28T09:08:18;100336.03;;;5.02;57.98
7157;BME280;3620;49.862;8.758;2023-02-28T09:10:45;100322.97;;;5.03;56.91
7157;BME280;3620;49.862;8.758;2023-02-28T09:13:12;100330.75;;;5.08;56.68
7157;BME280;3620;49.862;8.758;2023-02-28T09:15:39;100327.16;;;5.27;54.92
7157;BME280;3620;49.862;8.758;2023-02-28T09:18:06;100328.91;;;5.28;55.50
7157;BME280;3620;49.862;8.758;2023-02-28T09:20:32;100320.03;;;5.53;54.76
7157;BME280;3620;49.862;8.758;2023-02-28T09:22:59;100312.94;;;5.67;53.26
7157;BME280;3620;49.862;8.758;2023-02-28T09:25:25;100318.22;;;5.58;53.09
7157;BME280;3620;49.862;8.758;2023-02-28T09:27:52;100314.81;;;5.53;53.33
7157;BME280;3620;49.862;8.758;2023-02-28T09:30:19;100320.63;;;5.82;52.57
7157;BME280;3620;49.862;8.758;2023-02-28T09:32:47;100313.47;;;6.09;51.76
7157;BME280;3620;49.862;8.758;2023-02-28T09:35:17;100323.25;;;5.82;51.81
7157;BME280;3620;49.862;8.758;2023-02-28T09:37:44;100317.50;;;5.44;52.34
7157;BME280;3620;49.862;8.758;2023-02-28T09:40:12;100322.69;;;5.43;53.37
7157;BME280;3620;49.862;8.758;2023-02-28T09:42:40;100322.88;;;5.22;53.18
7157;BME280;3620;49.862;8.758;2023-02-28T09:45:13;100301.06;;;5.33;51.62
7157;BME280;3620;49.862;8.758;2023-02-28T09:47:47;100324.63;;;5.16;52.32
7157;BME280;3620;49.862;8.758;2023-02-28T09:50:19;100317.66;;;5.18;52.76
7157;BME280;3620;49.862;8.758;2023-02-28T09:52:50;100320.66;;;5.81;50.58
7157;BME280;3620;49.862;8.758;2023-02-28T09:55:20;100318.09;;;5.76;50.13
7157;BME280;3620;49.862;8.758;2023-02-28T09:57:50;100310.97;;;5.97;50.06
7157;BME280;3620;49.862;8.758;2023-02-28T10:00:18;100305.66;;;6.09;49.28
7157;BME280;3620;49.862;8.758;2023-02-28T10:03:17;100317.69;;;6.22;48.67
7157;BME280;3620;49.862;8.758;2023-02-28T10:05:51;100322.97;;;6.16;49.68
7157;BME280;3620;49.862;8.758;2023-02-28T10:08:25;100329.09;;;6.12;49.07
7157;BME280;3620;49.862;8.758;2023-02-28T10:10:55;100312.41;;;6.25;48.55
7157;BME280;3620;49.862;8.758;2023-02-28T10:13:26;100331.59;;;6.24;47.75
7157;BME280;3620;49.862;8.758;2023-02-28T10:15:56;100319.59;;;6.05;48.29
7157;BME280;3620;49.862;8.758;2023-02-28T10:18:30;100325.84;;;5.82;48.86
7157;BME280;3620;49.862;8.758;2023-02-28T10:20:59;100324.00;;;5.98;48.35
7157;BME280;3620;49.862;8.758;2023-02-28T10:23:28;100310.09;;;5.99;47.12
7157;BME280;3620;49.862;8.758;2023-02-28T10:25:59;100323.00;;;6.13;47.70
7157;BME280;3620;49.862;8.758;2023-02-28T10:28:30;100311.44;;;6.36;47.84
7157;BME280;3620;49.862;8.758;2023-02-28T10:30:58;100312.22;;;6.44;46.99
7157;BME280;3620;49.862;8.758;2023-02-28T10:33:29;100310.44;;;6.45;47.16
7157;BME280;3620;49.862;8.758;2023-02-28T10:35:56;100320.91;;;6.45;46.53
7157;BME280;3620;49.862;8.758;2023-02-28T10:38:28;100313.38;;;6.19;46.50
7157;BME280;3620;49.862;8.758;2023-02-28T10:41:07;100314.16;;;6.26;46.26
7157;BME280;3620;49.862;8.758;2023-02-28T10:43:35;100310.78;;;6.15;47.04
7157;BME280;3620;49.862;8.758;2023-02-28T10:46:04;100308.22;;;6.12;47.48
7157;BME280;3620;49.862;8.758;2023-02-28T10:48:37;100309.13;;;6.05;47.54
7157;BME280;3620;49.862;8.758;2023-02-28T10:51:05;100317.09;;;6.73;45.72
7157;BME280;3620;49.862;8.758;2023-02-28T10:53:45;100313.56;;;6.77;45.32
7157;BME280;3620;49.862;8.758;2023-02-28T10:56:17;100315.34;;;6.72;45.95
7157;BME280;3620;49.862;8.758;2023-02-28T10:58:54;100309.00;;;6.93;45.38
7157;BME280;3620;49.862;8.758;2023-02-28T11:01:23;100308.16;;;6.89;46.00
7157;BME280;3620;49.862;8.758;2023-02-28T11:03:52;100311.69;;;6.85;46.11
7157;BME280;3620;49.862;8.758;2023-02-28T11:06:22;100301.66;;;7.16;46.29
7157;BME280;3620;49.862;8.758;2023-02-28T11:08:54;100309.72;;;7.02;45.56
7157;BME280;3620;49.862;8.758;2023-02-28T11:11:22;100302.47;;;7.77;44.49
7157;BME280;3620;49.862;8.758;2023-02-28T11:13:53;100312.25;;;7.65;45.58
7157;BME280;3620;49.862;8.758;2023-02-28T11:16:21;100300.00;;;7.67;45.94
7157;BME280;3620;49.862;8.758;2023-02-28T11:18:50;100303.16;;;7.87;45.79
7157;BME280;3620;49.862;8.758;2023-02-28T11:21:24;100289.06;;;7.94;44.72
7157;BME280;3620;49.862;8.758;2023-02-28T11:23:57;100292.81;;;7.78;45.69
7157;BME280;3620;49.862;8.758;2023-02-28T11:26:41;100293.94;;;8.13;43.27
7157;BME280;3620;49.862;8.758;2023-02-28T11:29:17;100287.53;;;7.81;43.70
7157;BME280;3620;49.862;8.758;2023-02-28T11:32:00;100298.63;;;7.96;43.31
7157;BME280;3620;49.862;8.758;2023-02-28T11:34:27;100294.56;;;7.79;43.95
7157;BME280;3620;49.862;8.758;2023-02-28T11:36:57;100295.44;;;7.78;43.92
7157;BME280;3620;49.862;8.758;2023-02-28T11:39:25;100282.47;;;7.72;44.31
7157;BME280;3620;49.862;8.758;2023-02-28T11:44:53;100281.44;;;7.80;44.29
7157;BME280;3620;49.862;8.758;2023-02-28T11:47:32;100293.63;;;7.83;45.45
7157;BME280;3620;49.862;8.758;2023-02-28T11:50:12;100293.31;;;7.51;44.99
7157;BME280;3620;49.862;8.758;2023-02-28T11:52:50;100298.31;;;7.63;44.01
7157;BME280;3620;49.862;8.758;2023-02-28T11:55:20;100290.13;;;7.84;44.00
7157;BME280;3620;49.862;8.758;2023-02-28T11:58:08;100299.38;;;7.53;43.98
7157;BME280;3620;49.862;8.758;2023-02-28T12:00:57;100280.91;;;7.62;44.54
7157;BME280;3620;49.862;8.758;2023-02-28T12:03:36;100283.28;;;7.20;45.27
7157;BME280;3620;49.862;8.758;2023-02-28T12:06:15;100281.22;;;7.40;45.50
7157;BME280;3620;49.862;8.758;2023-02-28T12:08:53;100288.09;;;7.48;45.29
7157;BME280;3620;49.862;8.758;2023-02-28T12:11:31;100282.19;;;7.87;44.73
7157;BME280;3620;49.862;8.758;2023-02-28T12:14:25;100287.44;;;7.87;44.34
7157;BME280;3620;49.862;8.758;2023-02-28T12:17:06;100288.59;;;7.71;44.46
7157;BME280;3620;49.862;8.758;2023-02-28T12:19:44;100289.47;;;7.70;44.84
7157;BME280;3620;49.862;8.758;2023-02-28T12:22:29;100286.31;;;7.50;44.83
7157;BME280;3620;49.862;8.758;2023-02-28T12:25:38;100286.03;;;7.68;45.08
7157;BME280;3620;49.862;8.758;2023-02-28T12:28:13;100286.28;;;7.53;46.07
7157;BME280;3620;49.862;8.758;2023-02-28T12:30:44;100282.03;;;7.96;45.37
7157;BME280;3620;49.862;8.758;2023-02-28T12:33:15;100285.44;;;8.01;45.07
7157;BME280;3620;49.862;8.758;2023-02-28T12:35:47;100280.59;;;7.80;44.59
7157;BME280;3620;49.862;8.758;2023-02-28T12:38:19;100274.06;;;7.52;45.32
7157;BME280;3620;49.862;8.758;2023-02-28T12:40:53;100287.25;;;7.96;44.49
7157;BME280;3620;49.862;8.758;2023-02-28T12:43:21;100271.63;;;7.93;43.96
7157;BME280;3620;49.862;8.758;2023-02-28T12:45:51;100285.06;;;8.21;43.54
7157;BME280;3620;49.862;8.758;2023-02-28T12:48:22;100274.50;;;7.79;44.28
7157;BME280;3620;49.862;8.758;2023-02-28T12:50:51;100268.38;;;7.79;44.24
7157;BME280;3620;49.862;8.758;2023-02-28T12:53:23;100270.03;;;7.83;45.34
7157;BME280;3620;49.862;8.758;2023-02-28T12:56:01;100267.47;;;7.81;45.18
7157;BME280;3620;49.862;8.758;2023-02-28T12:58:33;100273.81;;;7.67;44.41
7157;BME280;3620;49.862;8.758;2023-02-28T13:01:28;100262.31;;;7.77;44.71
7157;BME280;3620;49.862;8.758;2023-02-28T13:07:33;100261.59;;;8.14;44.01
7157;BME280;3620;49.862;8.758;2023-02-28T13:10:05;100254.38;;;8.29;43.48
7157;BME280;3620;49.862;8.758;2023-02-28T13:12:34;100267.59;;;8.21;43.80
7157;BME280;3620;49.862;8.758;2023-02-28T13:15:05;100251.00;;;8.21;43.29
7157;BME280;3620;49.862;8.758;2023-02-28T13:17:37;100266.94;;;8.10;44.02
7157;BME280;3620;49.862;8.758;2023-02-28T13:20:15;100261.22;;;7.88;44.56
7157;BME280;3620;49.862;8.758;2023-02-28T13:22:45;100260.09;;;8.01;44.55
7157;BME280;3620;49.862;8.758;2023-02-28T13:34:41;100253.88;;;8.51;43.70
7157;BME280;3620;49.862;8.758;2023-02-28T13:37:44;100260.09;;;8.47;43.25
7157;BME280;3620;49.862;8.758;2023-02-28T13:40:29;100253.44;;;8.31;44.27
7157;BME280;3620;49.862;8.758;2023-02-28T13:42:55;100261.38;;;8.69;43.62
7157;BME280;3620;49.862;8.758;2023-02-28T13:45:26;100256.09;;;9.11;42.71
7157;BME280;3620;49.862;8.758;2023-02-28T13:47:58;100249.56;;;9.27;42.28
7157;BME280;3620;49.862;8.758;2023-02-28T13:50:33;100239.81;;;9.67;42.16
7157;BME280;3620;49.862;8.758;2023-02-28T13:56:01;100245.00;;;7.67;44.38
7157;BME280;3620;49.862;8.758;2023-02-28T13:58:41;100248.97;;;8.77;42.26
7157;BME280;3620;49.862;8.758;2023-02-28T14:01:27;100246.63;;;8.21;43.36